createdAt,value
2019-02-08T00:00:36.314Z,0.9
2019-02-08T00:01:43.533Z,0.9
2019-02-08T00:02:50.734Z,0.8
2019-02-08T00:03:57.924Z,0.8
2019-02-08T00:05:04.848Z,0.8
2019-02-08T00:06:11.769Z,0.8
2019-02-08T00:07:18.962Z,0.8
2019-02-08T00:08:26.164Z,0.8
2019-02-08T00:09:33.365Z,0.8
2019-02-08T00:10:40.551Z,0.8
2019-02-08T00:11:47.744Z,0.7
2019-02-08T00:12:54.939Z,0.7
2019-02-08T00:14:02.145Z,0.7
2019-02-08T00:15:09.583Z,0.7
2019-02-08T00:16:17.393Z,0.7
2019-02-08T00:17:25.724Z,0.6
2019-02-08T00:18:33.621Z,0.6
2019-02-08T00:19:42.063Z,0.6
2019-02-08T00:20:50.544Z,0.6
2019-02-08T00:21:58.514Z,0.6
2019-02-08T00:23:06.375Z,0.6
2019-02-08T00:24:13.561Z,0.6
2019-02-08T00:25:20.514Z,0.6
2019-02-08T00:26:27.725Z,0.5
2019-02-08T00:27:34.914Z,0.5
2019-02-08T00:28:42.106Z,0.5
2019-02-08T00:29:49.298Z,0.5
2019-02-08T00:30:56.497Z,0.5
2019-02-08T00:32:03.430Z,0.5
2019-02-08T00:33:10.642Z,0.5
2019-02-08T00:34:17.835Z,0.5
2019-02-08T00:35:25.031Z,0.5
2019-02-08T00:36:32.222Z,0.5
2019-02-08T00:37:39.426Z,0.5
2019-02-08T00:38:46.067Z,0.5
2019-02-08T00:39:52.722Z,0.5
2019-02-08T00:40:59.651Z,0.5
2019-02-08T00:42:06.841Z,0.5
2019-02-08T00:43:13.759Z,0.5
2019-02-08T00:44:20.952Z,0.5
2019-02-08T00:45:28.148Z,0.6
2019-02-08T00:46:35.337Z,0.6
2019-02-08T00:47:42.527Z,0.6
2019-02-08T00:48:49.726Z,0.5
2019-02-08T00:49:56.923Z,0.6
2019-02-08T00:51:04.110Z,0.5
2019-02-08T00:52:11.030Z,0.5
2019-02-08T00:53:18.219Z,0.6
2019-02-08T00:54:25.409Z,0.5
2019-02-08T00:55:32.586Z,0.5
2019-02-08T00:56:40.336Z,0.5
2019-02-08T00:57:48.359Z,0.6
2019-02-08T00:58:56.798Z,0.6
2019-02-08T01:00:04.776Z,0.6
2019-02-08T01:01:12.854Z,0.6
2019-02-08T01:02:20.645Z,0.6
2019-02-08T01:03:27.564Z,0.7
2019-02-08T01:04:34.754Z,0.6
2019-02-08T01:05:41.962Z,0.7
2019-02-08T01:06:48.883Z,0.7
2019-02-08T01:07:56.068Z,0.7
2019-02-08T01:09:03.259Z,0.7
2019-02-08T01:10:10.447Z,0.7
2019-02-08T01:11:17.660Z,0.7
2019-02-08T01:12:24.588Z,0.7
2019-02-08T01:13:31.780Z,0.7
2019-02-08T01:14:38.693Z,0.7
2019-02-08T01:15:45.883Z,0.7
2019-02-08T01:16:53.076Z,0.7
2019-02-08T01:18:00.289Z,0.7
2019-02-08T01:19:07.208Z,0.7
2019-02-08T01:20:14.397Z,0.8
2019-02-08T01:21:21.589Z,0.8
2019-02-08T01:22:28.515Z,0.8
2019-02-08T01:23:41.809Z,0.8
2019-02-08T01:24:48.729Z,0.8
2019-02-08T01:25:55.923Z,0.9
2019-02-08T01:27:03.120Z,0.9
2019-02-08T01:28:10.316Z,0.9
2019-02-08T01:29:17.513Z,0.8
2019-02-08T01:30:24.703Z,0.8
2019-02-08T01:31:31.898Z,0.8
2019-02-08T01:32:39.294Z,0.8
2019-02-08T01:33:46.486Z,0.8
2019-02-08T01:34:53.678Z,0.7
2019-02-08T01:36:00.869Z,0.7
2019-02-08T01:37:07.509Z,0.7
2019-02-08T01:38:14.702Z,0.7
2019-02-08T01:39:21.895Z,0.7
2019-02-08T01:40:29.087Z,0.7
2019-02-08T01:41:36.009Z,0.7
2019-02-08T01:42:43.199Z,0.7
2019-02-08T01:43:50.392Z,0.7
2019-02-08T01:44:57.583Z,0.7
2019-02-08T01:46:04.508Z,0.8
2019-02-08T01:47:11.425Z,0.8
2019-02-08T01:48:18.344Z,0.8
2019-02-08T01:49:25.535Z,0.8
2019-02-08T01:50:32.722Z,0.8
2019-02-08T01:51:39.914Z,0.8
2019-02-08T01:52:46.569Z,0.8
2019-02-08T01:53:53.759Z,0.9
2019-02-08T01:55:00.957Z,0.8
2019-02-08T01:56:08.158Z,0.9
2019-02-08T01:57:15.077Z,0.9
2019-02-08T01:58:22.273Z,0.9
2019-02-08T01:59:29.465Z,0.9
2019-02-08T02:00:36.656Z,0.9
2019-02-08T02:01:43.859Z,1
2019-02-08T02:02:51.045Z,0.9
2019-02-08T02:03:58.237Z,0.9
2019-02-08T02:05:05.161Z,0.9
2019-02-08T02:06:12.353Z,0.9
2019-02-08T02:07:19.542Z,0.9
2019-02-08T02:08:26.736Z,0.9
2019-02-08T02:09:33.927Z,0.8
2019-02-08T02:10:40.569Z,0.8
2019-02-08T02:11:47.759Z,0.8
2019-02-08T02:12:54.957Z,0.8
2019-02-08T02:14:02.154Z,0.8
2019-02-08T02:15:09.346Z,0.7
2019-02-08T02:16:15.989Z,0.7
2019-02-08T02:17:23.191Z,0.7
2019-02-08T02:18:30.379Z,0.7
2019-02-08T02:19:37.567Z,0.7
2019-02-08T02:20:44.484Z,0.7
2019-02-08T02:21:51.675Z,0.7
2019-02-08T02:22:59.072Z,0.7
2019-02-08T02:24:06.258Z,0.6
2019-02-08T02:25:13.448Z,0.6
2019-02-08T02:26:20.641Z,0.6
2019-02-08T02:27:27.831Z,0.6
2019-02-08T02:28:34.784Z,0.6
2019-02-08T02:29:41.976Z,0.6
2019-02-08T02:30:48.931Z,0.6
2019-02-08T02:31:56.107Z,0.7
2019-02-08T02:33:03.302Z,0.7
2019-02-08T02:34:10.212Z,0.7
2019-02-08T02:35:17.132Z,0.7
2019-02-08T02:36:24.327Z,0.7
2019-02-08T02:37:31.524Z,0.7
2019-02-08T02:38:38.720Z,0.8
2019-02-08T02:39:45.639Z,0.8
2019-02-08T02:40:52.556Z,0.7
2019-02-08T02:41:59.753Z,0.7
2019-02-08T02:43:06.952Z,0.7
2019-02-08T02:44:14.132Z,0.7
2019-02-08T02:45:21.057Z,0.7
2019-02-08T02:46:28.243Z,0.7
2019-02-08T02:47:35.438Z,0.7
2019-02-08T02:48:42.356Z,0.7
2019-02-08T02:49:49.549Z,0.6
2019-02-08T02:50:56.737Z,0.6
2019-02-08T02:52:03.931Z,0.6
2019-02-08T02:53:11.121Z,0.6
2019-02-08T02:54:18.332Z,0.7
2019-02-08T02:55:25.251Z,0.6
2019-02-08T02:56:32.444Z,0.6
2019-02-08T02:57:39.633Z,0.6
2019-02-08T02:58:46.825Z,0.6
2019-02-08T02:59:53.746Z,0.5
2019-02-08T03:01:00.935Z,0.6
2019-02-08T03:02:07.857Z,0.6
2019-02-08T03:03:15.058Z,0.6
2019-02-08T03:04:21.695Z,0.6
2019-02-08T03:05:28.610Z,0.6
2019-02-08T03:06:35.798Z,0.6
2019-02-08T03:07:42.983Z,0.6
2019-02-08T03:08:50.173Z,0.6
2019-02-08T03:09:56.812Z,0.6
2019-02-08T03:11:04.013Z,0.6
2019-02-08T03:12:11.195Z,0.6
2019-02-08T03:13:18.390Z,0.6
2019-02-08T03:14:25.581Z,0.6
2019-02-08T03:15:32.776Z,0.6
2019-02-08T03:16:39.981Z,0.7
2019-02-08T03:17:46.898Z,0.7
2019-02-08T03:18:54.094Z,0.7
2019-02-08T03:20:01.283Z,0.8
2019-02-08T03:21:08.477Z,0.8
2019-02-08T03:22:15.689Z,0.7
2019-02-08T03:23:22.881Z,0.7
2019-02-08T03:24:29.802Z,0.7
2019-02-08T03:25:36.998Z,0.6
2019-02-08T03:26:43.916Z,0.6
2019-02-08T03:27:51.105Z,0.6
2019-02-08T03:28:58.027Z,0.6
2019-02-08T03:30:05.218Z,0.6
2019-02-08T03:31:12.414Z,0.7
2019-02-08T03:32:19.605Z,0.7
2019-02-08T03:33:26.799Z,0.8
2019-02-08T03:34:34.082Z,0.8
2019-02-08T03:35:41.270Z,0.8
2019-02-08T03:36:48.474Z,0.9
2019-02-08T03:37:56.989Z,0.9
2019-02-08T03:39:04.177Z,0.9
2019-02-08T03:40:11.368Z,0.9
2019-02-08T03:41:18.562Z,0.9
2019-02-08T03:42:25.762Z,1
2019-02-08T03:43:32.961Z,1
2019-02-08T03:44:39.887Z,1
2019-02-08T03:45:47.082Z,1
2019-02-08T03:46:53.996Z,1
2019-02-08T03:48:00.911Z,1
2019-02-08T03:49:08.104Z,1
2019-02-08T03:50:15.027Z,0.9
2019-02-08T03:51:22.213Z,0.9
2019-02-08T03:52:29.424Z,0.9
2019-02-08T03:53:36.616Z,0.9
2019-02-08T03:54:43.807Z,0.8
2019-02-08T03:55:59.078Z,0.8
2019-02-08T03:57:06.295Z,0.7
2019-02-08T03:58:13.221Z,0.7
2019-02-08T03:59:20.138Z,0.6
2019-02-08T04:00:27.327Z,0.6
2019-02-08T04:01:33.974Z,0.7
2019-02-08T04:02:40.891Z,0.7
2019-02-08T04:03:48.088Z,0.6
2019-02-08T04:04:55.013Z,0.7
2019-02-08T04:06:01.932Z,0.6
2019-02-08T04:07:09.120Z,0.7
2019-02-08T04:08:16.346Z,0.6
2019-02-08T04:09:23.527Z,0.6
2019-02-08T04:10:30.715Z,0.6
2019-02-08T04:11:37.638Z,0.6
2019-02-08T04:12:44.830Z,0.7
2019-02-08T04:13:52.032Z,0.8
2019-02-08T04:14:59.223Z,0.8
2019-02-08T04:16:06.521Z,0.8
2019-02-08T04:17:13.451Z,1
2019-02-08T04:18:20.644Z,1
2019-02-08T04:19:27.868Z,1
2019-02-08T04:20:35.047Z,1.1
2019-02-08T04:21:42.243Z,1.1
2019-02-08T04:22:49.433Z,1.1
2019-02-08T04:23:56.638Z,1.1
2019-02-08T04:25:03.814Z,1.2
2019-02-08T04:26:11.005Z,1.2
2019-02-08T04:27:18.208Z,1.2
2019-02-08T04:28:25.399Z,1.2
2019-02-08T04:29:32.594Z,1.2
2019-02-08T04:30:39.784Z,1.2
2019-02-08T04:31:46.970Z,1.2
2019-02-08T04:32:53.893Z,1.3
2019-02-08T04:34:01.092Z,1.3
2019-02-08T04:35:08.317Z,1.3
2019-02-08T04:36:15.509Z,1.3
2019-02-08T04:37:22.698Z,1.3
2019-02-08T04:38:29.889Z,1.3
2019-02-08T04:39:37.094Z,1.3
2019-02-08T04:40:44.281Z,1.3
2019-02-08T04:41:51.688Z,1.3
2019-02-08T04:42:58.881Z,1.3
2019-02-08T04:44:06.076Z,1.3
2019-02-08T04:45:12.993Z,1.3
2019-02-08T04:46:20.193Z,1.3
2019-02-08T04:47:27.111Z,1.3
2019-02-08T04:48:34.306Z,1.3
2019-02-08T04:49:41.506Z,1.2
2019-02-08T04:50:48.417Z,1.3
2019-02-08T04:51:55.615Z,1.3
2019-02-08T04:53:02.807Z,1.3
2019-02-08T04:54:09.998Z,1.3
2019-02-08T04:55:17.186Z,1.4
2019-02-08T04:56:24.378Z,1.4
2019-02-08T04:57:31.301Z,1.5
2019-02-08T04:58:38.491Z,1.5
2019-02-08T04:59:45.680Z,1.5
2019-02-08T05:00:52.879Z,1.5
2019-02-08T05:02:00.069Z,1.5
2019-02-08T05:03:07.261Z,1.5
2019-02-08T05:04:14.456Z,1.5
2019-02-08T05:05:21.654Z,1.5
2019-02-08T05:06:28.849Z,1.5
2019-02-08T05:07:36.040Z,1.5
2019-02-08T05:08:43.233Z,1.5
2019-02-08T05:09:50.424Z,1.5
2019-02-08T05:10:57.617Z,1.6
2019-02-08T05:12:04.543Z,1.6
2019-02-08T05:13:11.736Z,1.5
2019-02-08T05:14:18.923Z,1.5
2019-02-08T05:15:26.122Z,1.5
2019-02-08T05:16:33.309Z,1.5
2019-02-08T05:17:40.219Z,1.5
2019-02-08T05:18:47.412Z,1.6
2019-02-08T05:19:54.611Z,1.5
2019-02-08T05:21:01.829Z,1.6
2019-02-08T05:22:09.016Z,1.6
2019-02-08T05:23:15.923Z,1.6
2019-02-08T05:24:23.129Z,1.6
2019-02-08T05:25:30.319Z,1.6
2019-02-08T05:26:37.513Z,1.6
2019-02-08T05:27:44.154Z,1.6
2019-02-08T05:28:51.360Z,1.6
2019-02-08T05:29:58.537Z,1.7
2019-02-08T05:31:05.739Z,1.6
2019-02-08T05:32:12.931Z,1.6
2019-02-08T05:33:20.130Z,1.6
2019-02-08T05:34:27.326Z,1.6
2019-02-08T05:35:34.521Z,1.6
2019-02-08T05:36:41.447Z,1.7
2019-02-08T05:37:48.643Z,1.7
2019-02-08T05:38:55.841Z,1.7
2019-02-08T05:40:03.031Z,1.7
2019-02-08T05:41:10.229Z,1.7
2019-02-08T05:42:17.174Z,1.7
2019-02-08T05:43:24.381Z,1.7
2019-02-08T05:44:31.296Z,1.7
2019-02-08T05:45:38.490Z,1.7
2019-02-08T05:46:45.140Z,1.7
2019-02-08T05:47:52.337Z,1.7
2019-02-08T05:48:59.252Z,1.8
2019-02-08T05:50:06.441Z,1.8
2019-02-08T05:51:13.634Z,1.8
2019-02-08T05:52:20.831Z,1.8
2019-02-08T05:53:28.029Z,1.8
2019-02-08T05:54:35.223Z,1.9
2019-02-08T05:55:42.141Z,1.9
2019-02-08T05:56:49.344Z,1.9
2019-02-08T05:57:56.532Z,1.9
2019-02-08T05:59:03.722Z,1.9
2019-02-08T06:00:10.913Z,1.9
2019-02-08T06:01:17.832Z,1.9
2019-02-08T06:02:25.028Z,1.9
2019-02-08T06:03:32.220Z,1.9
2019-02-08T06:04:39.142Z,1.9
2019-02-08T06:05:45.790Z,1.9
2019-02-08T06:06:52.709Z,1.9
2019-02-08T06:07:59.897Z,1.9
2019-02-08T06:09:07.096Z,1.9
2019-02-08T06:10:14.287Z,1.9
2019-02-08T06:11:21.473Z,1.9
2019-02-08T06:12:28.662Z,2
2019-02-08T06:13:35.854Z,1.9
2019-02-08T06:14:42.777Z,1.9
2019-02-08T06:15:49.971Z,1.9
2019-02-08T06:16:57.162Z,2
2019-02-08T06:18:04.381Z,2
2019-02-08T06:19:11.586Z,2
2019-02-08T06:20:18.504Z,1.9
2019-02-08T06:21:25.692Z,1.9
2019-02-08T06:22:32.887Z,1.9
2019-02-08T06:23:39.527Z,1.9
2019-02-08T06:24:46.721Z,1.9
2019-02-08T06:25:53.912Z,1.9
2019-02-08T06:27:01.099Z,1.9
2019-02-08T06:28:08.301Z,1.9
2019-02-08T06:29:15.494Z,1.9
2019-02-08T06:30:22.685Z,1.9
2019-02-08T06:31:29.342Z,1.8
2019-02-08T06:32:36.265Z,1.8
2019-02-08T06:33:43.457Z,1.9
2019-02-08T06:34:50.657Z,1.9
2019-02-08T06:35:57.579Z,1.8
2019-02-08T06:37:04.791Z,1.9
2019-02-08T06:38:11.984Z,1.9
2019-02-08T06:39:19.178Z,1.9
2019-02-08T06:40:26.384Z,1.9
2019-02-08T06:41:33.577Z,1.9
2019-02-08T06:42:40.767Z,1.9
2019-02-08T06:43:47.964Z,1.9
2019-02-08T06:44:55.160Z,1.9
2019-02-08T06:46:02.352Z,1.9
2019-02-08T06:47:09.544Z,1.9
2019-02-08T06:48:16.735Z,1.9
2019-02-08T06:49:23.926Z,1.9
2019-02-08T06:50:31.122Z,1.9
2019-02-08T06:51:38.318Z,1.9
2019-02-08T06:52:45.504Z,1.9
2019-02-08T06:53:52.698Z,1.9
2019-02-08T06:54:59.891Z,1.9
2019-02-08T06:56:07.090Z,1.9
2019-02-08T06:57:14.282Z,1.9
2019-02-08T06:58:21.474Z,1.9
2019-02-08T06:59:28.672Z,1.9
2019-02-08T07:00:35.622Z,1.9
2019-02-08T07:01:42.812Z,2
2019-02-08T07:02:50.005Z,2
2019-02-08T07:03:57.204Z,2
2019-02-08T07:05:04.398Z,2
2019-02-08T07:06:11.305Z,2.1
2019-02-08T07:07:18.500Z,2.1
2019-02-08T07:08:25.414Z,2.1
2019-02-08T07:09:32.335Z,2.1
2019-02-08T07:10:39.535Z,2.1
2019-02-08T07:11:48.227Z,2.1
2019-02-08T07:12:55.150Z,2.1
2019-02-08T07:14:02.350Z,2.1
2019-02-08T07:15:09.544Z,2.2
2019-02-08T07:16:16.735Z,2.2
2019-02-08T07:17:23.929Z,2.2
2019-02-08T07:18:31.116Z,2.2
2019-02-08T07:19:38.307Z,2.2
2019-02-08T07:20:45.512Z,2.2
2019-02-08T07:21:52.691Z,2.2
2019-02-08T07:22:59.614Z,2.2
2019-02-08T07:24:06.534Z,2.2
2019-02-08T07:25:19.025Z,2.2
2019-02-08T07:26:26.206Z,2.2
2019-02-08T07:27:33.398Z,2.2
2019-02-08T07:28:40.331Z,2.2
2019-02-08T07:29:47.254Z,2.2
2019-02-08T07:30:54.164Z,2.2
2019-02-08T07:32:01.354Z,2.2
2019-02-08T07:33:08.653Z,2.1
2019-02-08T07:34:15.573Z,2.2
2019-02-08T07:35:22.767Z,2.1
2019-02-08T07:36:29.966Z,2.1
2019-02-08T07:37:37.174Z,2.1
2019-02-08T07:38:44.364Z,2.1
2019-02-08T07:39:51.559Z,2.1
2019-02-08T07:40:58.477Z,2.1
2019-02-08T07:42:05.400Z,2.1
2019-02-08T07:43:12.591Z,2.1
2019-02-08T07:44:19.782Z,2.1
2019-02-08T07:45:26.700Z,2.1
2019-02-08T07:46:33.894Z,2.1
2019-02-08T07:47:40.822Z,2.1
2019-02-08T07:48:47.456Z,2.1
2019-02-08T07:49:54.652Z,2.2
2019-02-08T07:51:01.574Z,2.2
2019-02-08T07:52:08.767Z,2.2
2019-02-08T07:53:15.955Z,2.2
2019-02-08T07:54:22.875Z,2.3
2019-02-08T07:55:30.065Z,2.3
2019-02-08T07:56:37.260Z,2.3
2019-02-08T07:57:44.173Z,2.3
2019-02-08T07:58:51.368Z,2.4
2019-02-08T07:59:58.581Z,2.4
2019-02-08T08:01:05.758Z,2.4
2019-02-08T08:02:14.340Z,2.4
2019-02-08T08:03:21.621Z,2.5
2019-02-08T08:04:28.813Z,2.5
2019-02-08T08:05:36.023Z,2.5
2019-02-08T08:06:43.205Z,2.5
2019-02-08T08:07:50.397Z,2.5
2019-02-08T08:08:57.592Z,2.5
2019-02-08T08:10:04.514Z,2.6
2019-02-08T08:11:11.710Z,2.5
2019-02-08T08:12:18.901Z,2.6
2019-02-08T08:13:27.710Z,2.6
2019-02-08T08:14:34.911Z,2.6
2019-02-08T08:15:42.103Z,2.6
2019-02-08T08:16:48.758Z,2.6
2019-02-08T08:17:55.675Z,2.6
2019-02-08T08:19:02.872Z,2.6
2019-02-08T08:20:10.070Z,2.6
2019-02-08T08:21:17.265Z,2.6
2019-02-08T08:22:24.198Z,2.6
2019-02-08T08:23:31.393Z,2.6
2019-02-08T08:24:38.583Z,2.6
2019-02-08T08:25:45.500Z,2.6
2019-02-08T08:26:52.692Z,2.7
2019-02-08T08:27:59.883Z,2.7
2019-02-08T08:29:06.815Z,2.7
2019-02-08T08:30:14.009Z,2.7
2019-02-08T08:31:20.927Z,2.8
2019-02-08T08:32:27.852Z,2.8
2019-02-08T08:33:35.051Z,2.8
2019-02-08T08:34:41.971Z,2.8
2019-02-08T08:35:48.895Z,2.9
2019-02-08T08:36:56.086Z,2.9
2019-02-08T08:38:03.275Z,2.9
2019-02-08T08:39:10.190Z,3
2019-02-08T08:40:17.388Z,3
2019-02-08T08:41:24.584Z,3
2019-02-08T08:42:31.780Z,3.1
2019-02-08T08:43:38.974Z,3.1
2019-02-08T08:44:46.181Z,3.1
2019-02-08T08:45:53.375Z,3.2
2019-02-08T08:47:00.572Z,3.3
2019-02-08T08:48:07.772Z,3.4
2019-02-08T08:49:14.971Z,3.5
2019-02-08T08:50:22.185Z,3.5
2019-02-08T08:51:29.384Z,3.6
2019-02-08T08:52:36.578Z,3.6
2019-02-08T08:53:44.536Z,3.6
2019-02-08T08:54:51.730Z,3.7
2019-02-08T08:55:58.917Z,3.6
2019-02-08T08:57:06.133Z,3.7
2019-02-08T08:58:13.314Z,3.7
2019-02-08T08:59:20.540Z,3.7
2019-02-08T09:00:27.785Z,3.8
2019-02-08T09:01:34.975Z,3.8
2019-02-08T09:02:42.164Z,3.7
2019-02-08T09:03:49.359Z,3.7
2019-02-08T09:04:56.553Z,3.7
2019-02-08T09:06:09.392Z,3.8
2019-02-08T09:07:17.138Z,3.8
2019-02-08T09:08:24.331Z,3.9
2019-02-08T09:09:31.526Z,3.9
2019-02-08T09:10:38.713Z,4
2019-02-08T09:11:45.914Z,4
2019-02-08T09:12:53.134Z,4
2019-02-08T09:14:00.328Z,4
2019-02-08T09:15:07.256Z,4
2019-02-08T09:16:14.685Z,4
2019-02-08T09:17:21.856Z,4.1
2019-02-08T09:18:29.047Z,4.1
2019-02-08T09:19:36.241Z,4.1
2019-02-08T09:20:43.436Z,4.1
2019-02-08T09:21:50.633Z,4.2
2019-02-08T09:22:57.824Z,4.2
2019-02-08T09:24:04.740Z,4.2
2019-02-08T09:25:11.939Z,4.2
2019-02-08T09:26:18.866Z,4.3
2019-02-08T09:27:26.066Z,4.3
2019-02-08T09:28:32.992Z,4.4
2019-02-08T09:29:40.183Z,4.5
2019-02-08T09:30:48.982Z,4.5
2019-02-08T09:31:56.174Z,4.6
2019-02-08T09:33:03.372Z,4.6
2019-02-08T09:34:10.576Z,4.6
2019-02-08T09:35:17.768Z,4.6
2019-02-08T09:36:24.961Z,4.6
2019-02-08T09:37:32.159Z,4.7
2019-02-08T09:38:39.078Z,4.8
2019-02-08T09:39:45.998Z,4.9
2019-02-08T09:40:52.924Z,5
2019-02-08T09:42:00.139Z,5
2019-02-08T09:43:07.328Z,5
2019-02-08T09:44:14.522Z,5.1
2019-02-08T09:45:21.440Z,5.2
2019-02-08T09:46:28.370Z,5.2
2019-02-08T09:47:35.565Z,5.2
2019-02-08T09:48:42.759Z,5.2
2019-02-08T09:49:49.953Z,5.2
2019-02-08T09:50:56.871Z,5.2
2019-02-08T09:52:04.067Z,5.3
2019-02-08T09:53:11.275Z,5.4
2019-02-08T09:54:18.471Z,5.4
2019-02-08T09:55:25.669Z,5.5
2019-02-08T09:56:32.861Z,5.6
2019-02-08T09:57:39.781Z,5.7
2019-02-08T09:58:46.716Z,5.8
2019-02-08T09:59:53.907Z,5.9
2019-02-08T10:01:00.871Z,5.9
2019-02-08T10:02:07.784Z,6
2019-02-08T10:03:14.998Z,6
2019-02-08T10:04:22.178Z,6.1
2019-02-08T10:05:29.374Z,6.1
2019-02-08T10:06:36.578Z,6
2019-02-08T10:07:43.494Z,6
2019-02-08T10:08:50.691Z,5.9
2019-02-08T10:09:57.882Z,5.9
2019-02-08T10:11:04.530Z,5.8
2019-02-08T10:12:11.726Z,5.8
2019-02-08T10:13:18.923Z,5.7
2019-02-08T10:14:26.123Z,5.8
2019-02-08T10:15:33.323Z,5.8
2019-02-08T10:16:40.245Z,5.8
2019-02-08T10:17:47.441Z,5.8
2019-02-08T10:18:54.639Z,5.9
2019-02-08T10:20:01.837Z,5.8
2019-02-08T10:21:09.032Z,5.8
2019-02-08T10:22:15.971Z,5.9
2019-02-08T10:23:23.164Z,5.9
2019-02-08T10:24:30.357Z,5.9
2019-02-08T10:25:37.016Z,5.9
2019-02-08T10:26:44.209Z,6
2019-02-08T10:27:51.405Z,6
2019-02-08T10:28:58.604Z,6
2019-02-08T10:30:05.815Z,6.1
2019-02-08T10:31:13.027Z,6.2
2019-02-08T10:32:20.217Z,6.2
2019-02-08T10:33:27.142Z,6.3
2019-02-08T10:34:34.343Z,6.3
2019-02-08T10:35:41.541Z,6.2
2019-02-08T10:36:48.737Z,6.2
2019-02-08T10:37:55.933Z,6.2
2019-02-08T10:39:03.129Z,6.3
2019-02-08T10:40:10.326Z,6.3
2019-02-08T10:41:17.247Z,6.3
2019-02-08T10:42:24.172Z,6.4
2019-02-08T10:43:31.367Z,6.4
2019-02-08T10:44:38.572Z,6.4
2019-02-08T10:45:45.779Z,6.4
2019-02-08T10:46:52.696Z,6.4
2019-02-08T10:47:59.888Z,6.4
2019-02-08T10:49:07.083Z,6.4
2019-02-08T10:50:14.284Z,6.4
2019-02-08T10:51:21.477Z,6.4
2019-02-08T10:52:28.706Z,6.5
2019-02-08T10:53:35.882Z,6.5
2019-02-08T10:54:42.809Z,6.4
2019-02-08T10:55:50.007Z,6.5
2019-02-08T10:56:57.201Z,6.5
2019-02-08T10:58:04.404Z,6.5
2019-02-08T10:59:11.342Z,6.6
2019-02-08T11:00:18.540Z,6.6
2019-02-08T11:01:25.748Z,6.7
2019-02-08T11:02:32.947Z,6.7
2019-02-08T11:03:40.149Z,6.7
2019-02-08T11:04:47.348Z,6.7
2019-02-08T11:05:54.547Z,6.6
2019-02-08T11:07:01.742Z,6.6
2019-02-08T11:08:08.665Z,6.6
2019-02-08T11:09:15.597Z,6.6
2019-02-08T11:10:22.794Z,6.6
2019-02-08T11:11:29.988Z,6.6
2019-02-08T11:12:36.930Z,6.6
2019-02-08T11:13:43.848Z,6.7
2019-02-08T11:14:51.045Z,6.6
2019-02-08T11:15:58.276Z,6.6
2019-02-08T11:17:05.519Z,6.6
2019-02-08T11:18:12.421Z,6.7
2019-02-08T11:19:19.628Z,6.7
2019-02-08T11:20:26.824Z,6.7
2019-02-08T11:21:33.768Z,6.7
2019-02-08T11:22:40.986Z,6.7
2019-02-08T11:23:48.177Z,6.8
2019-02-08T11:24:55.101Z,6.8
2019-02-08T11:26:02.299Z,6.8
2019-02-08T11:27:09.493Z,6.9
2019-02-08T11:28:16.740Z,6.9
2019-02-08T11:29:23.942Z,6.9
2019-02-08T11:30:30.867Z,6.9
2019-02-08T11:31:37.785Z,6.9
2019-02-08T11:32:44.708Z,6.9
2019-02-08T11:33:51.902Z,6.9
2019-02-08T11:34:59.107Z,7
2019-02-08T11:36:06.421Z,7
2019-02-08T11:37:13.627Z,7
2019-02-08T11:38:20.558Z,7
2019-02-08T11:39:27.479Z,7
2019-02-08T11:40:34.674Z,7.1
2019-02-08T11:41:41.872Z,7.1
2019-02-08T11:42:49.064Z,7.1
2019-02-08T11:43:56.268Z,7.1
2019-02-08T11:45:03.189Z,7
2019-02-08T11:46:10.388Z,7
2019-02-08T11:47:17.310Z,7
2019-02-08T11:48:24.238Z,7
2019-02-08T11:49:31.433Z,7
2019-02-08T11:50:38.370Z,7
2019-02-08T11:51:45.558Z,7.1
2019-02-08T11:52:52.482Z,7.1
2019-02-08T11:53:59.402Z,7.1
2019-02-08T11:55:06.333Z,7.1
2019-02-08T11:56:13.532Z,7.1
2019-02-08T11:57:20.737Z,7.1
2019-02-08T11:58:27.988Z,7.1
2019-02-08T11:59:34.893Z,7.1
2019-02-08T12:00:42.093Z,7.2
2019-02-08T12:01:49.291Z,7.2
2019-02-08T12:02:56.488Z,7.2
2019-02-08T12:04:03.701Z,7.2
2019-02-08T12:05:10.904Z,7.2
2019-02-08T12:06:18.102Z,7.2
2019-02-08T12:07:25.295Z,7.1
2019-02-08T12:08:32.496Z,7.1
2019-02-08T12:09:38.874Z,7.1
2019-02-08T12:10:46.071Z,7.1
2019-02-08T12:11:53.265Z,7.1
2019-02-08T12:13:00.467Z,7.1
2019-02-08T12:14:07.390Z,7.2
2019-02-08T12:15:14.627Z,7.2
2019-02-08T12:16:21.823Z,7.2
2019-02-08T12:17:29.019Z,7.1
2019-02-08T12:18:36.216Z,7.1
2019-02-08T12:19:43.415Z,7.1
2019-02-08T12:20:50.611Z,7.1
2019-02-08T12:21:57.538Z,7.1
2019-02-08T12:23:04.732Z,7.1
2019-02-08T12:24:11.933Z,7.2
2019-02-08T12:25:19.131Z,7.2
2019-02-08T12:26:26.332Z,7.2
2019-02-08T12:27:33.533Z,7.2
2019-02-08T12:28:40.734Z,7.3
2019-02-08T12:29:47.934Z,7.3
2019-02-08T12:30:54.867Z,7.3
2019-02-08T12:32:01.788Z,7.2
2019-02-08T12:33:08.985Z,7.2
2019-02-08T12:34:16.183Z,7.3
2019-02-08T12:35:23.729Z,7.3
2019-02-08T12:36:30.927Z,7.3
2019-02-08T12:37:38.125Z,7.3
2019-02-08T12:38:45.321Z,7.4
2019-02-08T12:39:52.525Z,7.4
2019-02-08T12:40:59.725Z,7.5
2019-02-08T12:42:06.926Z,7.5
2019-02-08T12:43:14.124Z,7.5
2019-02-08T12:44:21.324Z,7.6
2019-02-08T12:45:28.253Z,7.7
2019-02-08T12:46:35.460Z,7.8
2019-02-08T12:47:42.676Z,7.9
2019-02-08T12:48:49.600Z,7.9
2019-02-08T12:49:56.821Z,8
2019-02-08T12:51:04.018Z,8
2019-02-08T12:52:11.227Z,8.1
2019-02-08T12:53:18.415Z,8.2
2019-02-08T12:54:25.619Z,8.3
2019-02-08T12:55:32.819Z,8.3
2019-02-08T12:56:46.130Z,8.4
2019-02-08T12:57:53.325Z,8.4
2019-02-08T12:59:00.534Z,8.3
2019-02-08T13:00:07.462Z,8.3
2019-02-08T13:01:14.670Z,8.2
2019-02-08T13:02:21.597Z,8.1
2019-02-08T13:03:28.803Z,8
2019-02-08T13:04:35.458Z,8.1
2019-02-08T13:05:42.386Z,8.1
2019-02-08T13:06:49.314Z,8
2019-02-08T13:07:56.521Z,8.1
2019-02-08T13:09:03.716Z,8.1
2019-02-08T13:10:10.916Z,8.1
2019-02-08T13:11:18.114Z,8.1
2019-02-08T13:12:25.033Z,8.1
2019-02-08T13:13:32.240Z,8.1
2019-02-08T13:14:39.163Z,8.1
2019-02-08T13:15:46.395Z,8
2019-02-08T13:16:53.580Z,8
2019-02-08T13:18:00.789Z,8
2019-02-08T13:19:07.992Z,8
2019-02-08T13:20:14.921Z,8
2019-02-08T13:21:21.579Z,8
2019-02-08T13:22:28.771Z,8
2019-02-08T13:23:35.968Z,7.9
2019-02-08T13:24:43.166Z,7.9
2019-02-08T13:25:50.373Z,7.9
2019-02-08T13:26:57.565Z,7.9
2019-02-08T13:28:04.761Z,7.9
2019-02-08T13:29:11.685Z,8
2019-02-08T13:30:18.885Z,8
2019-02-08T13:31:26.084Z,8
2019-02-08T13:32:33.003Z,8
2019-02-08T13:33:40.198Z,8
2019-02-08T13:34:47.395Z,8.1
2019-02-08T13:35:54.061Z,8
2019-02-08T13:37:01.281Z,8.1
2019-02-08T13:38:08.478Z,8.1
2019-02-08T13:39:15.681Z,8.1
2019-02-08T13:40:22.613Z,8.1
2019-02-08T13:41:29.551Z,8.1
2019-02-08T13:42:36.742Z,8
2019-02-08T13:43:43.942Z,8.1
2019-02-08T13:44:51.150Z,8
2019-02-08T13:45:58.346Z,8
2019-02-08T13:47:05.540Z,8
2019-02-08T13:48:12.746Z,8
2019-02-08T13:49:19.947Z,8
2019-02-08T13:50:26.877Z,8
2019-02-08T13:51:34.083Z,8
2019-02-08T13:52:41.287Z,8
2019-02-08T13:53:48.234Z,8
2019-02-08T13:54:55.139Z,7.9
2019-02-08T13:56:02.337Z,7.9
2019-02-08T13:57:09.266Z,8
2019-02-08T13:58:16.189Z,7.9
2019-02-08T13:59:23.447Z,7.9
2019-02-08T14:00:30.657Z,7.9
2019-02-08T14:01:37.865Z,7.9
2019-02-08T14:02:44.799Z,7.9
2019-02-08T14:03:52.003Z,7.9
2019-02-08T14:04:59.201Z,7.9
2019-02-08T14:06:06.132Z,7.8
2019-02-08T14:07:13.342Z,7.8
2019-02-08T14:08:22.064Z,7.8
2019-02-08T14:09:29.356Z,7.8
2019-02-08T14:10:36.288Z,7.7
2019-02-08T14:11:43.496Z,7.7
2019-02-08T14:12:50.435Z,7.7
2019-02-08T14:13:57.636Z,7.7
2019-02-08T14:15:04.836Z,7.6
2019-02-08T14:16:11.768Z,7.6
2019-02-08T14:17:18.971Z,7.6
2019-02-08T14:18:26.173Z,7.6
2019-02-08T14:19:33.094Z,7.6
2019-02-08T14:20:40.294Z,7.6
2019-02-08T14:21:46.952Z,7.6
2019-02-08T14:22:53.882Z,7.6
2019-02-08T14:24:01.083Z,7.6
2019-02-08T14:25:08.285Z,7.6
2019-02-08T14:26:15.210Z,7.5
2019-02-08T14:27:22.411Z,7.5
2019-02-08T14:28:29.610Z,7.5
2019-02-08T14:29:36.065Z,7.5
2019-02-08T14:30:43.268Z,7.5
2019-02-08T14:31:50.467Z,7.5
2019-02-08T14:32:59.317Z,7.4
2019-02-08T14:34:06.238Z,7.4
2019-02-08T14:35:13.483Z,7.5
2019-02-08T14:36:20.730Z,7.5
2019-02-08T14:37:27.926Z,7.5
2019-02-08T14:38:36.143Z,7.5
2019-02-08T14:39:43.344Z,7.5
2019-02-08T14:40:50.546Z,7.5
2019-02-08T14:41:57.465Z,7.4
2019-02-08T14:43:04.678Z,7.4
2019-02-08T14:44:11.609Z,7.3
2019-02-08T14:45:18.822Z,7.2
2019-02-08T14:46:26.029Z,7.2
2019-02-08T14:47:33.231Z,7.3
2019-02-08T14:48:40.440Z,7.2
2019-02-08T14:49:47.644Z,7.2
2019-02-08T14:50:54.570Z,7.2
2019-02-08T14:52:01.241Z,7.1
2019-02-08T14:53:08.442Z,7.1
2019-02-08T14:54:15.370Z,7.1
2019-02-08T14:55:22.301Z,7.1
2019-02-08T14:56:31.288Z,7.1
2019-02-08T14:57:38.223Z,7.1
2019-02-08T14:58:45.418Z,7.2
2019-02-08T14:59:52.613Z,7.2
2019-02-08T15:00:59.821Z,7.2
2019-02-08T15:02:07.017Z,7.2
2019-02-08T15:03:14.217Z,7.2
2019-02-08T15:04:21.417Z,7.2
2019-02-08T15:05:28.622Z,7.2
2019-02-08T15:06:35.816Z,7.2
2019-02-08T15:07:43.019Z,7.2
2019-02-08T15:08:49.949Z,7.2
2019-02-08T15:09:57.147Z,7.2
2019-02-08T15:11:04.354Z,7.2
2019-02-08T15:12:11.562Z,7.2
2019-02-08T15:13:18.762Z,7.2
2019-02-08T15:14:25.961Z,7.2
2019-02-08T15:15:33.155Z,7.1
2019-02-08T15:16:40.362Z,7.1
2019-02-08T15:17:47.576Z,7.1
2019-02-08T15:18:54.262Z,7.1
2019-02-08T15:20:01.214Z,7.1
2019-02-08T15:21:08.148Z,7.1
2019-02-08T15:22:15.546Z,7.1
2019-02-08T15:23:22.753Z,7.1
2019-02-08T15:24:29.684Z,7.1
2019-02-08T15:25:36.898Z,7.1
2019-02-08T15:26:44.126Z,7.1
2019-02-08T15:27:51.411Z,7.1
2019-02-08T15:28:58.616Z,7.1
2019-02-08T15:30:05.829Z,7.1
2019-02-08T15:31:12.755Z,7.1